Time;durP1;ratioP1;P1;durP2;ratioP2;P2;SDS_P1;SDS_P2;PMS_P1;PMS_P2;Temp;Humidity;BMP_temperature;BMP_pressure;BME280_temperature;BME280_humidity;BME280_pressure;Samples;Min_cycle;Max_cycle;Signal;HPM_P1;HPM_P2
2024/01/06 00:01:46;;;;;;;2.70;2.60;;;;;;;;;;6361181;28;20291;-69
2024/01/06 00:04:50;;;;;;;2.93;2.83;;;;;;;;;;6370383;27;20292;-69
2024/01/06 00:07:54;;;;;;;2.47;2.33;;;;;;;;;;6386900;27;20291;-69
2024/01/06 00:10:57;;;;;;;3.30;3.10;;;;;;;;;;6386784;27;20292;-70
2024/01/06 00:14:01;;;;;;;2.97;2.80;;;;;;;;;;6386564;27;20292;-69
2024/01/06 00:17:07;;;;;;;2.70;2.60;;;;;;;;;;6387047;27;20299;-69
2024/01/06 00:20:12;;;;;;;3.10;2.90;;;;;;;;;;6386088;27;20300;-69
2024/01/06 00:23:16;;;;;;;3.30;2.80;;;;;;;;;;6386728;27;20310;-71
2024/01/06 00:26:20;;;;;;;4.03;2.70;;;;;;;;;;6386027;27;20303;-70
2024/01/06 00:29:24;;;;;;;2.50;2.40;;;;;;;;;;6386187;27;20596;-69
2024/01/06 00:32:29;;;;;;;2.80;2.70;;;;;;;;;;6386858;27;20315;-70
2024/01/06 00:35:34;;;;;;;2.67;2.50;;;;;;;;;;6385696;27;20296;-69
2024/01/06 00:38:37;;;;;;;2.93;2.77;;;;;;;;;;6386398;27;20292;-70
2024/01/06 00:41:41;;;;;;;3.17;2.40;;;;;;;;;;6386011;27;20312;-69
2024/01/06 00:44:46;;;;;;;3.03;2.90;;;;;;;;;;6386265;27;20296;-70
2024/01/06 00:47:51;;;;;;;2.50;2.37;;;;;;;;;;6378929;27;20304;-69
2024/01/06 00:50:55;;;;;;;2.50;2.40;;;;;;;;;;6376325;27;20312;-70
2024/01/06 00:53:59;;;;;;;2.50;2.40;;;;;;;;;;6386012;27;20299;-69
2024/01/06 00:57:03;;;;;;;2.63;2.50;;;;;;;;;;6379677;27;20529;-69
2024/01/06 01:00:07;;;;;;;2.90;2.60;;;;;;;;;;6385362;27;20490;-68
2024/01/06 01:03:13;;;;;;;2.57;2.47;;;;;;;;;;6385999;27;20299;-68
2024/01/06 01:06:17;;;;;;;2.50;2.40;;;;;;;;;;6385058;27;20291;-69
2024/01/06 01:09:21;;;;;;;2.57;2.47;;;;;;;;;;6385222;27;20303;-69
2024/01/06 01:12:25;;;;;;;2.70;2.50;;;;;;;;;;6360051;28;20292;-69
2024/01/06 01:15:29;;;;;;;2.57;2.47;;;;;;;;;;6370597;27;20383;-69
2024/01/06 01:18:35;;;;;;;2.87;2.70;;;;;;;;;;6385744;27;20287;-69
2024/01/06 01:21:39;;;;;;;2.37;2.27;;;;;;;;;;6384323;27;20304;-69
2024/01/06 01:24:43;;;;;;;2.60;2.50;;;;;;;;;;6384550;27;20288;-68
2024/01/06 01:27:47;;;;;;;2.73;2.53;;;;;;;;;;6385097;27;20300;-70
2024/01/06 01:30:51;;;;;;;2.23;2.23;;;;;;;;;;6384736;27;20556;-69
2024/01/06 01:33:57;;;;;;;2.70;2.60;;;;;;;;;;6385327;27;20299;-69
2024/01/06 01:37:01;;;;;;;2.90;2.70;;;;;;;;;;6384838;27;20289;-69
2024/01/06 01:40:06;;;;;;;2.40;2.30;;;;;;;;;;6384774;27;20284;-68
2024/01/06 01:43:17;;;;;;;2.50;2.40;;;;;;;;;;6385436;27;20296;-69
2024/01/06 01:46:21;;;;;;;2.40;2.30;;;;;;;;;;6384837;27;20291;-69
2024/01/06 01:49:26;;;;;;;2.50;2.30;;;;;;;;;;6383661;27;20316;-71
2024/01/06 01:52:31;;;;;;;2.20;2.20;;;;;;;;;;6340647;28;20267;-69
2024/01/06 01:55:35;;;;;;;2.30;2.30;;;;;;;;;;6368424;28;20294;-69
2024/01/06 01:58:39;;;;;;;2.40;2.30;;;;;;;;;;6384872;28;20252;-69
2024/01/06 02:01:43;;;;;;;2.10;2.10;;;;;;;;;;6384558;28;20579;-68
2024/01/06 02:04:48;;;;;;;2.27;2.23;;;;;;;;;;6384258;28;20284;-69
2024/01/06 02:07:52;;;;;;;2.73;2.70;;;;;;;;;;6384583;27;20299;-69
2024/01/06 02:10:57;;;;;;;2.70;2.50;;;;;;;;;;6384367;28;20575;-70
2024/01/06 02:14:01;;;;;;;2.20;2.20;;;;;;;;;;6366850;27;20570;-70
2024/01/06 02:17:04;;;;;;;2.33;2.23;;;;;;;;;;6389217;27;20323;-69
2024/01/06 02:20:13;;;;;;;2.37;2.27;;;;;;;;;;6388845;27;20287;-68
2024/01/06 02:23:18;;;;;;;2.90;2.70;;;;;;;;;;6389768;27;20306;-68
2024/01/06 02:26:22;;;;;;;2.77;2.57;;;;;;;;;;6389244;27;20291;-68
2024/01/06 02:29:26;;;;;;;2.40;2.37;;;;;;;;;;6389026;27;20427;-70
2024/01/06 02:32:30;;;;;;;1.90;1.90;;;;;;;;;;6389687;27;20331;-70
2024/01/06 02:35:33;;;;;;;2.40;2.30;;;;;;;;;;6389008;27;20315;-70
2024/01/06 02:38:39;;;;;;;2.27;2.27;;;;;;;;;;6370777;27;20295;-70
2024/01/06 02:41:43;;;;;;;2.20;2.10;;;;;;;;;;6389168;27;20284;-70
2024/01/06 02:44:46;;;;;;;2.00;2.00;;;;;;;;;;6388861;27;20291;-70
2024/01/06 02:47:50;;;;;;;2.40;2.40;;;;;;;;;;6363884;28;20485;-69
2024/01/06 02:50:54;;;;;;;2.30;2.30;;;;;;;;;;6372558;27;20580;-68
2024/01/06 02:54:00;;;;;;;2.03;2.00;;;;;;;;;;6370432;27;20588;-69
2024/01/06 02:57:04;;;;;;;2.40;2.30;;;;;;;;;;6388137;27;20280;-69
2024/01/06 03:00:09;;;;;;;2.03;2.03;;;;;;;;;;6386312;27;20496;-70
2024/01/06 03:03:13;;;;;;;2.50;2.40;;;;;;;;;;6388861;27;20283;-70
2024/01/06 03:06:17;;;;;;;2.30;2.30;;;;;;;;;;6388715;27;20292;-69
2024/01/06 03:09:23;;;;;;;2.37;2.27;;;;;;;;;;6388231;27;20481;-70
2024/01/06 03:12:27;;;;;;;2.20;2.20;;;;;;;;;;6384211;27;20288;-69
2024/01/06 03:15:31;;;;;;;2.50;2.33;;;;;;;;;;6388249;27;20299;-70
2024/01/06 03:18:34;;;;;;;2.07;2.07;;;;;;;;;;6389273;27;20296;-70
2024/01/06 03:21:39;;;;;;;2.30;2.20;;;;;;;;;;6387539;27;20304;-69
2024/01/06 03:24:44;;;;;;;2.20;2.20;;;;;;;;;;6388364;27;20422;-70
2024/01/06 03:27:48;;;;;;;2.40;2.40;;;;;;;;;;6388448;27;20455;-70
2024/01/06 03:30:52;;;;;;;2.73;2.23;;;;;;;;;;6388208;27;20303;-70
2024/01/06 03:33:56;;;;;;;2.30;2.20;;;;;;;;;;6388347;27;20300;-69
2024/01/06 03:37:00;;;;;;;2.40;2.30;;;;;;;;;;6387719;27;20565;-69
2024/01/06 03:40:07;;;;;;;2.20;2.10;;;;;;;;;;6387501;27;20300;-69
2024/01/06 03:43:11;;;;;;;2.10;2.10;;;;;;;;;;6388549;27;20291;-69
2024/01/06 03:46:15;;;;;;;1.90;1.80;;;;;;;;;;6378464;27;20394;-69
2024/01/06 03:49:20;;;;;;;2.20;2.20;;;;;;;;;;6361996;28;20300;-69
2024/01/06 03:52:24;;;;;;;2.20;2.10;;;;;;;;;;6361292;27;20405;-70
2024/01/06 03:55:30;;;;;;;1.80;1.77;;;;;;;;;;6387397;27;20299;-69
2024/01/06 03:58:34;;;;;;;2.63;2.50;;;;;;;;;;6387373;27;20374;-69
2024/01/06 04:01:38;;;;;;;2.33;2.33;;;;;;;;;;6369924;27;20465;-70
2024/01/06 04:04:41;;;;;;;1.87;1.87;;;;;;;;;;6384624;27;20296;-70
2024/01/06 04:07:45;;;;;;;2.10;2.00;;;;;;;;;;6387308;27;20288;-69
2024/01/06 04:10:51;;;;;;;2.30;2.20;;;;;;;;;;6386801;27;20291;-69
2024/01/06 04:13:55;;;;;;;2.33;2.30;;;;;;;;;;6386689;27;20292;-69
2024/01/06 04:17:00;;;;;;;2.03;2.03;;;;;;;;;;6387083;27;20307;-70
2024/01/06 04:20:05;;;;;;;2.27;2.17;;;;;;;;;;6386624;27;20292;-70
2024/01/06 04:23:09;;;;;;;2.00;2.00;;;;;;;;;;6386886;27;20293;-70
2024/01/06 04:26:14;;;;;;;2.30;2.30;;;;;;;;;;6386467;27;20307;-70
2024/01/06 04:29:18;;;;;;;2.30;2.20;;;;;;;;;;6386885;27;20289;-69
2024/01/06 04:32:22;;;;;;;2.40;2.30;;;;;;;;;;6386990;27;20368;-69
2024/01/06 04:35:26;;;;;;;1.97;1.97;;;;;;;;;;6386021;27;20296;-70
2024/01/06 04:38:30;;;;;;;2.03;2.03;;;;;;;;;;6385571;27;20316;-70
2024/01/06 04:41:36;;;;;;;1.80;1.80;;;;;;;;;;6386486;27;20291;-70
2024/01/06 04:44:39;;;;;;;1.60;1.60;;;;;;;;;;6385961;27;20298;-70
2024/01/06 04:47:43;;;;;;;1.90;1.90;;;;;;;;;;6386232;27;20327;-70
2024/01/06 04:50:47;;;;;;;2.20;2.00;;;;;;;;;;6385782;27;20295;-70
2024/01/06 04:53:51;;;;;;;2.20;2.20;;;;;;;;;;6385732;27;20292;-70
2024/01/06 04:56:57;;;;;;;2.00;2.00;;;;;;;;;;6386026;27;20289;-69
2024/01/06 05:00:01;;;;;;;2.23;2.10;;;;;;;;;;6385252;27;20363;-70
2024/01/06 05:03:05;;;;;;;2.13;2.13;;;;;;;;;;6386329;27;20300;-70
2024/01/06 05:06:09;;;;;;;2.37;2.17;;;;;;;;;;6385419;27;20307;-70
2024/01/06 05:09:13;;;;;;;2.00;2.00;;;;;;;;;;6385402;27;20552;-70
2024/01/06 05:12:19;;;;;;;2.00;1.97;;;;;;;;;;6384164;27;20533;-69
2024/01/06 05:15:23;;;;;;;2.17;2.17;;;;;;;;;;6385298;27;20296;-69
2024/01/06 05:18:27;;;;;;;2.30;2.20;;;;;;;;;;6385271;27;20450;-70
2024/01/06 05:21:31;;;;;;;2.17;2.07;;;;;;;;;;6386133;27;20288;-69
2024/01/06 05:24:35;;;;;;;2.13;2.07;;;;;;;;;;6385400;27;20292;-70
2024/01/06 05:27:41;;;;;;;2.23;2.13;;;;;;;;;;6385803;27;20290;-70
2024/01/06 05:30:45;;;;;;;2.10;2.10;;;;;;;;;;6385714;27;20297;-69
2024/01/06 05:33:48;;;;;;;2.50;2.40;;;;;;;;;;6385930;27;20373;-69
2024/01/06 05:36:53;;;;;;;2.20;2.20;;;;;;;;;;6385652;27;20291;-69
2024/01/06 05:40:01;;;;;;;1.60;1.60;;;;;;;;;;6384770;27;20359;-69
2024/01/06 05:43:06;;;;;;;2.03;2.03;;;;;;;;;;6385553;27;20295;-70
2024/01/06 05:46:10;;;;;;;2.43;2.33;;;;;;;;;;6384911;27;20299;-70
2024/01/06 05:49:14;;;;;;;2.13;2.03;;;;;;;;;;6383855;27;20300;-70
2024/01/06 05:52:18;;;;;;;2.30;2.23;;;;;;;;;;6385243;27;20285;-70
2024/01/06 05:55:22;;;;;;;2.17;2.07;;;;;;;;;;6384638;28;20304;-70
2024/01/06 05:58:28;;;;;;;2.10;2.03;;;;;;;;;;6383598;28;20288;-70
2024/01/06 06:01:32;;;;;;;2.27;2.17;;;;;;;;;;6384643;28;20451;-70
2024/01/06 06:04:36;;;;;;;2.40;2.40;;;;;;;;;;6384564;28;20467;-70
2024/01/06 06:07:40;;;;;;;2.50;2.40;;;;;;;;;;6384686;28;20242;-70
2024/01/06 06:11:00;;;;;;;2.30;2.10;;;;;;;;;;6384393;28;20300;-69
2024/01/06 06:14:07;;;;;;;1.90;1.90;;;;;;;;;;6384034;27;20302;-69
2024/01/06 06:17:10;;;;;;;2.20;2.20;;;;;;;;;;6384666;28;20300;-69
2024/01/06 06:20:14;;;;;;;2.83;1.97;;;;;;;;;;6384197;28;20293;-69
2024/01/06 06:23:18;;;;;;;2.00;2.00;;;;;;;;;;6384483;28;20537;-69
2024/01/06 06:26:22;;;;;;;2.00;1.90;;;;;;;;;;6383822;28;20293;-69
2024/01/06 06:29:28;;;;;;;2.30;2.17;;;;;;;;;;6383947;28;20373;-69
2024/01/06 06:32:32;;;;;;;2.40;2.30;;;;;;;;;;6384387;28;20443;-69
2024/01/06 06:35:36;;;;;;;2.57;2.07;;;;;;;;;;6384144;28;20487;-70
2024/01/06 06:38:40;;;;;;;2.10;2.10;;;;;;;;;;6384139;28;20415;-69
2024/01/06 06:41:44;;;;;;;2.07;2.03;;;;;;;;;;6384890;28;20609;-69
2024/01/06 06:44:49;;;;;;;2.00;2.00;;;;;;;;;;6376371;28;20290;-69
2024/01/06 06:47:53;;;;;;;2.33;2.33;;;;;;;;;;6382531;28;20498;-68
2024/01/06 06:50:57;;;;;;;1.90;1.90;;;;;;;;;;6384199;28;20471;-70
2024/01/06 06:54:01;;;;;;;2.30;2.30;;;;;;;;;;6383803;28;20577;-69
2024/01/06 06:57:05;;;;;;;2.00;2.00;;;;;;;;;;6384295;28;20557;-70
2024/01/06 07:00:11;;;;;;;2.40;2.40;;;;;;;;;;6383977;27;20298;-70
2024/01/06 07:03:15;;;;;;;2.20;2.20;;;;;;;;;;6388900;27;20283;-70
2024/01/06 07:06:20;;;;;;;2.10;2.10;;;;;;;;;;6388518;27;20481;-70
2024/01/06 07:09:24;;;;;;;1.83;1.83;;;;;;;;;;6388536;27;20296;-69
2024/01/06 07:12:28;;;;;;;2.20;2.17;;;;;;;;;;6388630;27;20296;-70
2024/01/06 07:15:33;;;;;;;2.00;2.00;;;;;;;;;;6386327;27;20292;-70
2024/01/06 07:18:37;;;;;;;2.10;2.10;;;;;;;;;;6388151;27;20344;-71
2024/01/06 07:21:41;;;;;;;2.00;2.00;;;;;;;;;;6388243;27;20311;-70
2024/01/06 07:24:46;;;;;;;2.07;1.97;;;;;;;;;;6388558;27;20291;-69
2024/01/06 07:27:50;;;;;;;2.10;2.10;;;;;;;;;;6388591;27;20285;-70
2024/01/06 07:30:59;;;;;;;2.37;2.37;;;;;;;;;;6387940;27;20292;-70
2024/01/06 07:34:03;;;;;;;2.43;2.30;;;;;;;;;;6385916;27;20419;-70
2024/01/06 07:37:07;;;;;;;2.17;2.17;;;;;;;;;;6388737;27;20296;-70
2024/01/06 07:40:16;;;;;;;2.57;2.47;;;;;;;;;;6387885;27;20296;-70
2024/01/06 07:43:20;;;;;;;2.43;2.30;;;;;;;;;;6388184;27;20284;-70
2024/01/06 07:46:25;;;;;;;2.10;2.10;;;;;;;;;;6386699;27;20296;-71
2024/01/06 07:49:29;;;;;;;2.13;2.13;;;;;;;;;;6387239;27;20292;-69
2024/01/06 07:52:33;;;;;;;2.20;2.20;;;;;;;;;;6387832;27;20243;-69
2024/01/06 07:55:38;;;;;;;2.23;2.20;;;;;;;;;;6387301;27;20300;-69
2024/01/06 07:58:41;;;;;;;2.40;2.30;;;;;;;;;;6386957;27;20384;-69
2024/01/06 08:01:47;;;;;;;2.20;2.20;;;;;;;;;;6387169;27;20434;-70
2024/01/06 08:04:51;;;;;;;2.17;2.10;;;;;;;;;;6386683;27;20295;-69
2024/01/06 08:07:54;;;;;;;2.60;2.50;;;;;;;;;;6387125;27;20288;-69
2024/01/06 08:10:58;;;;;;;2.30;2.20;;;;;;;;;;6387199;27;20285;-70
2024/01/06 08:14:02;;;;;;;2.50;2.40;;;;;;;;;;6385836;27;20547;-69
2024/01/06 08:17:08;;;;;;;2.80;2.67;;;;;;;;;;6386960;27;20325;-69
2024/01/06 08:20:12;;;;;;;2.30;2.30;;;;;;;;;;6385768;27;20292;-70
2024/01/06 08:23:18;;;;;;;2.50;2.30;;;;;;;;;;6387179;27;20284;-69
2024/01/06 08:26:23;;;;;;;3.73;2.40;;;;;;;;;;6386485;27;20292;-68
2024/01/06 08:29:27;;;;;;;2.73;2.63;;;;;;;;;;6367454;27;20296;-69
2024/01/06 08:32:32;;;;;;;2.07;2.07;;;;;;;;;;6386935;27;20286;-69
2024/01/06 08:35:40;;;;;;;2.47;2.47;;;;;;;;;;6386574;27;20300;-69
2024/01/06 08:38:44;;;;;;;2.60;2.50;;;;;;;;;;6386349;27;20467;-69
2024/01/06 08:41:48;;;;;;;2.50;2.27;;;;;;;;;;6378885;27;20290;-69
2024/01/06 08:44:52;;;;;;;2.50;2.40;;;;;;;;;;6386426;27;20296;-69
2024/01/06 08:47:57;;;;;;;2.60;2.40;;;;;;;;;;6386804;27;20283;-69
2024/01/06 08:51:01;;;;;;;2.53;2.33;;;;;;;;;;6385465;27;20304;-69
2024/01/06 08:54:05;;;;;;;2.13;2.13;;;;;;;;;;6385551;27;20288;-69
2024/01/06 08:57:09;;;;;;;2.43;2.33;;;;;;;;;;6386021;27;20302;-70
2024/01/06 09:00:14;;;;;;;2.63;2.53;;;;;;;;;;6385357;27;20288;-69
2024/01/06 09:03:24;;;;;;;2.80;2.70;;;;;;;;;;6385949;27;20289;-70
2024/01/06 09:06:28;;;;;;;2.53;2.43;;;;;;;;;;6384965;27;20365;-69
2024/01/06 09:09:32;;;;;;;2.77;2.60;;;;;;;;;;6385393;27;20283;-69
2024/01/06 09:12:36;;;;;;;2.83;2.73;;;;;;;;;;6385889;27;20296;-68
2024/01/06 09:15:41;;;;;;;3.17;2.90;;;;;;;;;;6385418;27;20292;-69
2024/01/06 09:18:46;;;;;;;2.70;2.70;;;;;;;;;;6376719;27;20289;-69
2024/01/06 09:21:50;;;;;;;2.60;2.50;;;;;;;;;;6385500;27;20488;-69
2024/01/06 09:24:54;;;;;;;2.50;2.40;;;;;;;;;;6385111;27;20292;-69
2024/01/06 09:27:59;;;;;;;3.10;3.00;;;;;;;;;;6385637;27;20296;-69
2024/01/06 09:31:04;;;;;;;2.87;2.87;;;;;;;;;;6384881;27;20292;-71
2024/01/06 09:34:12;;;;;;;3.00;2.90;;;;;;;;;;6383544;27;20337;-70
2024/01/06 09:37:16;;;;;;;2.83;2.70;;;;;;;;;;6367223;27;20292;-70
2024/01/06 09:40:23;;;;;;;3.17;2.97;;;;;;;;;;6385084;27;20340;-69
2024/01/06 09:43:27;;;;;;;2.97;2.77;;;;;;;;;;6383591;27;20264;-69
2024/01/06 09:46:31;;;;;;;3.30;3.20;;;;;;;;;;6385418;27;20237;-70
2024/01/06 09:49:40;;;;;;;2.87;2.70;;;;;;;;;;6384440;27;20324;-69
2024/01/06 09:52:53;;;;;;;2.80;2.70;;;;;;;;;;6384891;27;20288;-70
2024/01/06 09:55:58;;;;;;;2.80;2.70;;;;;;;;;;6384954;27;20297;-70
2024/01/06 09:59:02;;;;;;;3.00;2.90;;;;;;;;;;6383928;27;20383;-70
2024/01/06 10:02:06;;;;;;;2.90;2.80;;;;;;;;;;6384660;27;20295;-71
2024/01/06 10:05:13;;;;;;;3.07;2.87;;;;;;;;;;6384156;28;20300;-68
2024/01/06 10:08:19;;;;;;;2.60;2.50;;;;;;;;;;6383288;27;20280;-69
2024/01/06 10:11:23;;;;;;;2.80;2.70;;;;;;;;;;6384194;28;20303;-70
2024/01/06 10:14:27;;;;;;;2.97;2.70;;;;;;;;;;6382079;28;20312;-69
2024/01/06 10:17:31;;;;;;;3.10;2.90;;;;;;;;;;6382538;28;20292;-68
2024/01/06 10:20:37;;;;;;;2.90;2.80;;;;;;;;;;6383424;27;20299;-67
2024/01/06 10:23:42;;;;;;;3.13;2.93;;;;;;;;;;6312828;28;20606;-69
2024/01/06 10:26:46;;;;;;;4.07;2.93;;;;;;;;;;6345207;28;20309;-69
2024/01/06 10:29:51;;;;;;;2.90;2.80;;;;;;;;;;6358608;28;20300;-69
2024/01/06 10:32:56;;;;;;;3.37;2.80;;;;;;;;;;6359299;28;20296;-67
2024/01/06 10:36:01;;;;;;;3.13;3.00;;;;;;;;;;6326604;28;20288;-66
2024/01/06 10:39:07;;;;;;;2.93;2.73;;;;;;;;;;6341712;28;20302;-67
2024/01/06 10:42:13;;;;;;;2.63;2.53;;;;;;;;;;6354390;28;20293;-67
2024/01/06 10:45:17;;;;;;;3.10;2.90;;;;;;;;;;6363403;27;20284;-67
2024/01/06 10:48:22;;;;;;;2.50;2.50;;;;;;;;;;6363944;27;20300;-69
2024/01/06 10:51:30;;;;;;;2.67;2.53;;;;;;;;;;6356097;28;20289;-68
2024/01/06 10:54:36;;;;;;;3.20;3.00;;;;;;;;;;6353270;27;20298;-68
2024/01/06 10:57:41;;;;;;;3.17;3.07;;;;;;;;;;6357561;28;20301;-67
2024/01/06 11:00:45;;;;;;;3.20;3.10;;;;;;;;;;6362485;27;20633;-68
2024/01/06 11:03:49;;;;;;;3.17;3.07;;;;;;;;;;6359569;27;20308;-69
2024/01/06 11:06:56;;;;;;;2.93;2.73;;;;;;;;;;6335969;28;20298;-68
2024/01/06 11:10:05;;;;;;;2.93;2.83;;;;;;;;;;6367311;27;20296;-68
2024/01/06 11:13:11;;;;;;;3.70;3.50;;;;;;;;;;6365887;27;20289;-68
2024/01/06 11:16:39;;;;;;;3.40;3.30;;;;;;;;;;6363156;27;20296;-68
2024/01/06 11:19:46;;;;;;;3.17;3.03;;;;;;;;;;6370932;27;20320;-69
2024/01/06 11:22:52;;;;;;;2.83;2.73;;;;;;;;;;6363575;27;20296;-68
2024/01/06 11:25:56;;;;;;;3.20;2.90;;;;;;;;;;6379765;27;20609;-68
2024/01/06 11:29:02;;;;;;;3.00;2.87;;;;;;;;;;6362949;27;20581;-68
2024/01/06 11:32:21;;;;;;;3.00;2.80;;;;;;;;;;6361676;27;20477;-69
2024/01/06 11:35:29;;;;;;;2.80;2.67;;;;;;;;;;6371383;27;20289;-71
2024/01/06 11:38:39;;;;;;;2.50;2.50;;;;;;;;;;6363783;27;20297;-69
2024/01/06 11:41:49;;;;;;;2.77;2.67;;;;;;;;;;6377188;27;20309;-68
2024/01/06 11:44:53;;;;;;;2.97;2.70;;;;;;;;;;6361978;27;20296;-68
2024/01/06 11:47:58;;;;;;;3.10;2.70;;;;;;;;;;6361004;27;20518;-68
2024/01/06 11:51:03;;;;;;;2.97;2.80;;;;;;;;;;6370835;27;20293;-68
2024/01/06 11:54:09;;;;;;;2.80;2.70;;;;;;;;;;6368328;27;20296;-70
2024/01/06 11:57:12;;;;;;;4.93;2.60;;;;;;;;;;6372133;27;20298;-68
2024/01/06 12:00:17;;;;;;;2.80;2.70;;;;;;;;;;6343000;28;20297;-70
2024/01/06 12:03:23;;;;;;;2.90;2.80;;;;;;;;;;6363662;27;20299;-73
2024/01/06 12:06:27;;;;;;;2.80;2.80;;;;;;;;;;6353922;28;20297;-71
2024/01/06 12:09:32;;;;;;;2.63;2.53;;;;;;;;;;6352028;27;20296;-70
2024/01/06 12:12:36;;;;;;;3.10;2.90;;;;;;;;;;6360587;27;20292;-68
2024/01/06 12:15:40;;;;;;;3.00;2.70;;;;;;;;;;6353242;27;20293;-69
2024/01/06 12:18:44;;;;;;;3.00;2.80;;;;;;;;;;6342035;27;20284;-69
2024/01/06 12:21:48;;;;;;;2.37;2.30;;;;;;;;;;6366687;27;20474;-68
2024/01/06 12:24:54;;;;;;;2.63;2.53;;;;;;;;;;6373985;27;20292;-68
2024/01/06 12:27:58;;;;;;;4.07;2.97;;;;;;;;;;6365123;27;20297;-68
2024/01/06 12:31:05;;;;;;;2.90;2.80;;;;;;;;;;6361063;27;20295;-69
2024/01/06 12:34:09;;;;;;;2.73;2.50;;;;;;;;;;6367278;27;20288;-70
2024/01/06 12:37:14;;;;;;;2.77;2.67;;;;;;;;;;6362940;27;20305;-66
2024/01/06 12:40:21;;;;;;;3.07;2.90;;;;;;;;;;6377560;27;20290;-68
2024/01/06 12:43:25;;;;;;;2.30;2.30;;;;;;;;;;6360025;27;20281;-69
2024/01/06 12:46:29;;;;;;;2.80;2.70;;;;;;;;;;6361124;27;20250;-69
2024/01/06 12:49:33;;;;;;;2.77;2.67;;;;;;;;;;6357576;27;20288;-67
2024/01/06 12:52:41;;;;;;;2.80;2.60;;;;;;;;;;6361056;28;20242;-71
2024/01/06 12:55:47;;;;;;;3.47;3.17;;;;;;;;;;6357642;27;20288;-69
2024/01/06 12:58:51;;;;;;;5.63;2.87;;;;;;;;;;6360904;27;20285;-69
2024/01/06 13:01:55;;;;;;;2.37;2.37;;;;;;;;;;6361170;27;20593;-69
2024/01/06 13:04:59;;;;;;;2.93;2.83;;;;;;;;;;6369444;27;20428;-69
2024/01/06 13:08:03;;;;;;;2.63;2.63;;;;;;;;;;6360320;27;20284;-68
2024/01/06 13:11:08;;;;;;;3.00;2.90;;;;;;;;;;6378826;27;20315;-68
2024/01/06 13:14:13;;;;;;;2.57;2.47;;;;;;;;;;6359958;27;20288;-72
2024/01/06 13:17:17;;;;;;;3.03;2.83;;;;;;;;;;6338903;28;20313;-68
2024/01/06 13:20:21;;;;;;;2.53;2.53;;;;;;;;;;6348683;27;20312;-68
2024/01/06 13:23:25;;;;;;;2.80;2.77;;;;;;;;;;6360314;27;20297;-69
2024/01/06 13:26:31;;;;;;;2.70;2.60;;;;;;;;;;6376722;27;20300;-68
2024/01/06 13:29:35;;;;;;;2.80;2.70;;;;;;;;;;6360004;27;20284;-68
2024/01/06 13:32:39;;;;;;;3.03;2.83;;;;;;;;;;6360015;27;20305;-70
2024/01/06 13:35:43;;;;;;;2.70;2.50;;;;;;;;;;6368164;27;20468;-68
2024/01/06 13:38:48;;;;;;;2.90;2.70;;;;;;;;;;6363399;27;20371;-69
2024/01/06 13:41:53;;;;;;;2.93;2.83;;;;;;;;;;6322475;28;20290;-66
2024/01/06 13:45:00;;;;;;;2.80;2.70;;;;;;;;;;6323926;28;20281;-71
2024/01/06 13:48:04;;;;;;;3.30;3.00;;;;;;;;;;6359530;28;20289;-70
2024/01/06 13:51:12;;;;;;;3.30;3.10;;;;;;;;;;6368510;27;20297;-70
2024/01/06 13:54:16;;;;;;;2.60;2.50;;;;;;;;;;6367519;27;20291;-70
2024/01/06 13:57:24;;;;;;;3.43;3.23;;;;;;;;;;6368728;27;20593;-69
2024/01/06 14:00:28;;;;;;;3.33;3.13;;;;;;;;;;6359752;27;20296;-70
2024/01/06 14:03:33;;;;;;;3.53;2.70;;;;;;;;;;6360695;27;20288;-70
2024/01/06 14:06:39;;;;;;;3.30;3.00;;;;;;;;;;6366177;27;20296;-69
2024/01/06 14:09:43;;;;;;;2.93;2.73;;;;;;;;;;6370826;27;20297;-69
2024/01/06 14:12:49;;;;;;;3.60;3.40;;;;;;;;;;6319832;28;20291;-70
2024/01/06 14:15:53;;;;;;;3.80;3.40;;;;;;;;;;6335044;28;20285;-69
2024/01/06 14:18:57;;;;;;;3.30;3.10;;;;;;;;;;6337403;28;20416;-69
2024/01/06 14:22:04;;;;;;;3.10;2.90;;;;;;;;;;6363770;27;20609;-69
2024/01/06 14:25:09;;;;;;;2.97;2.77;;;;;;;;;;6379100;27;20308;-70
2024/01/06 14:28:14;;;;;;;2.97;2.87;;;;;;;;;;6366031;27;20289;-70
2024/01/06 14:31:18;;;;;;;2.90;2.80;;;;;;;;;;6364164;27;20285;-70
2024/01/06 14:34:22;;;;;;;3.13;2.93;;;;;;;;;;6372495;27;20612;-70
2024/01/06 14:37:26;;;;;;;3.17;3.00;;;;;;;;;;6363597;28;20285;-69
2024/01/06 14:40:30;;;;;;;3.20;3.10;;;;;;;;;;6363528;27;20310;-69
2024/01/06 14:43:36;;;;;;;3.17;3.07;;;;;;;;;;6363412;27;20241;-69
2024/01/06 14:52:46;;;;;;;3.30;3.10;;;;;;;;;;6323263;27;20838;-69
2024/01/06 14:55:50;;;;;;;3.17;2.93;;;;;;;;;;6330089;28;20295;-71
2024/01/06 14:58:54;;;;;;;3.30;3.07;;;;;;;;;;6326925;28;20294;-71
2024/01/06 15:01:58;;;;;;;3.20;3.00;;;;;;;;;;6310285;28;20293;-68
2024/01/06 15:05:04;;;;;;;3.23;2.93;;;;;;;;;;6330584;28;20294;-70
2024/01/06 15:08:09;;;;;;;3.97;3.57;;;;;;;;;;6330774;27;20293;-68
2024/01/06 15:11:13;;;;;;;3.80;3.50;;;;;;;;;;6312744;28;20297;-69
2024/01/06 15:14:17;;;;;;;3.20;2.90;;;;;;;;;;6330461;28;20296;-69
2024/01/06 15:17:21;;;;;;;3.40;3.20;;;;;;;;;;6294679;28;20293;-69
2024/01/06 15:20:25;;;;;;;3.40;3.20;;;;;;;;;;6312452;28;20293;-69
2024/01/06 15:23:30;;;;;;;3.53;3.33;;;;;;;;;;6328684;28;20555;-69
2024/01/06 15:26:35;;;;;;;3.07;2.97;;;;;;;;;;6314812;28;20290;-70
2024/01/06 15:29:39;;;;;;;3.30;3.10;;;;;;;;;;6329720;28;20290;-69
2024/01/06 15:32:43;;;;;;;3.40;3.30;;;;;;;;;;6330158;28;20309;-69
2024/01/06 15:35:47;;;;;;;3.20;3.10;;;;;;;;;;6329137;28;20297;-69
2024/01/06 15:38:52;;;;;;;3.20;2.90;;;;;;;;;;6329384;28;20320;-70
2024/01/06 15:41:56;;;;;;;3.10;3.00;;;;;;;;;;6329347;28;20291;-71
2024/01/06 15:45:00;;;;;;;4.27;3.67;;;;;;;;;;6329128;28;20533;-69
2024/01/06 15:48:05;;;;;;;3.83;3.60;;;;;;;;;;6329997;28;20291;-70
2024/01/06 15:51:09;;;;;;;3.33;3.03;;;;;;;;;;6327028;28;20619;-70
2024/01/06 15:54:14;;;;;;;3.40;3.17;;;;;;;;;;6329392;28;20290;-70
2024/01/06 15:57:18;;;;;;;3.33;3.13;;;;;;;;;;6329855;28;20298;-69
2024/01/06 16:00:23;;;;;;;3.33;3.00;;;;;;;;;;6328083;28;20291;-70
2024/01/06 16:03:28;;;;;;;3.60;3.37;;;;;;;;;;6315120;28;20302;-69
2024/01/06 16:06:32;;;;;;;4.03;3.63;;;;;;;;;;6287795;28;20518;-68
2024/01/06 16:09:41;;;;;;;3.63;3.30;;;;;;;;;;6285957;28;20488;-69
2024/01/06 16:12:45;;;;;;;3.97;3.67;;;;;;;;;;6287892;28;20488;-69
2024/01/06 16:15:49;;;;;;;3.80;3.50;;;;;;;;;;6287640;28;20290;-69
2024/01/06 16:18:53;;;;;;;3.53;3.33;;;;;;;;;;6287517;28;20297;-68
2024/01/06 16:22:00;;;;;;;4.13;3.73;;;;;;;;;;6287213;28;20458;-68
2024/01/06 16:25:21;;;;;;;4.30;4.00;;;;;;;;;;6286975;28;20442;-70
2024/01/06 16:28:25;;;;;;;3.70;3.50;;;;;;;;;;6286350;28;20270;-71
2024/01/06 16:31:30;;;;;;;3.93;3.50;;;;;;;;;;6287286;28;20283;-68
2024/01/06 16:34:35;;;;;;;4.47;4.17;;;;;;;;;;6286693;28;20296;-69
2024/01/06 16:37:40;;;;;;;4.93;3.80;;;;;;;;;;6287138;28;20255;-69
2024/01/06 16:40:45;;;;;;;4.70;3.70;;;;;;;;;;6285240;28;20300;-70
2024/01/06 16:43:50;;;;;;;4.10;3.80;;;;;;;;;;6286315;28;20287;-68
2024/01/06 16:46:57;;;;;;;4.13;3.90;;;;;;;;;;6286697;28;20295;-68
2024/01/06 16:50:00;;;;;;;5.50;4.20;;;;;;;;;;6285697;28;20292;-67
2024/01/06 16:53:04;;;;;;;4.73;3.70;;;;;;;;;;6286164;28;20306;-68
2024/01/06 16:56:11;;;;;;;5.33;4.13;;;;;;;;;;6286257;28;20295;-69
2024/01/06 16:59:15;;;;;;;4.43;4.03;;;;;;;;;;6293336;28;20302;-67
2024/01/06 17:02:19;;;;;;;4.80;4.20;;;;;;;;;;6293754;28;20310;-67
2024/01/06 17:05:23;;;;;;;7.57;4.53;;;;;;;;;;6279207;28;20290;-69
2024/01/06 17:08:28;;;;;;;10.90;5.47;;;;;;;;;;6311207;28;20571;-69
2024/01/06 17:11:33;;;;;;;5.67;5.00;;;;;;;;;;6311241;28;20301;-69
2024/01/06 17:14:37;;;;;;;6.63;5.07;;;;;;;;;;6309782;28;20295;-69
2024/01/06 17:17:41;;;;;;;4.40;4.17;;;;;;;;;;6310520;28;20292;-69
2024/01/06 17:20:45;;;;;;;5.40;4.47;;;;;;;;;;6308857;28;20465;-70
2024/01/06 17:23:52;;;;;;;6.07;4.10;;;;;;;;;;6310550;28;20298;-71
2024/01/06 17:26:58;;;;;;;5.30;4.80;;;;;;;;;;6310844;28;20588;-70
2024/01/06 17:30:02;;;;;;;4.57;4.17;;;;;;;;;;6310370;28;20292;-71
2024/01/06 17:33:06;;;;;;;5.10;4.67;;;;;;;;;;6310610;28;20304;-69
2024/01/06 17:36:11;;;;;;;5.63;5.03;;;;;;;;;;6310887;28;20287;-70
2024/01/06 17:39:16;;;;;;;7.17;5.23;;;;;;;;;;6310070;28;20287;-68
2024/01/06 17:42:24;;;;;;;6.63;5.43;;;;;;;;;;6310095;28;20426;-70
2024/01/06 17:45:28;;;;;;;9.97;5.23;;;;;;;;;;6309780;28;20291;-69
2024/01/06 17:48:32;;;;;;;8.53;5.50;;;;;;;;;;6284914;28;20539;-69
2024/01/06 17:51:36;;;;;;;6.63;4.57;;;;;;;;;;6294248;28;20302;-69
2024/01/06 17:54:40;;;;;;;4.93;4.63;;;;;;;;;;6309585;28;20296;-69
2024/01/06 17:57:45;;;;;;;6.23;5.57;;;;;;;;;;6309500;28;20299;-69
2024/01/06 18:00:49;;;;;;;5.27;4.70;;;;;;;;;;6309135;28;20294;-70
2024/01/06 18:03:54;;;;;;;6.83;4.90;;;;;;;;;;6309480;28;20290;-69
2024/01/06 18:06:59;;;;;;;7.03;4.73;;;;;;;;;;6309930;28;20452;-70
2024/01/06 18:10:03;;;;;;;4.87;4.47;;;;;;;;;;6308708;28;20469;-69
2024/01/06 18:13:13;;;;;;;8.10;4.97;;;;;;;;;;6309791;28;20291;-70
2024/01/06 18:16:17;;;;;;;7.93;4.57;;;;;;;;;;6309291;28;20448;-70
2024/01/06 18:19:21;;;;;;;8.47;4.50;;;;;;;;;;6309457;28;20309;-69
2024/01/06 18:22:25;;;;;;;5.57;4.93;;;;;;;;;;6308720;28;20283;-70
2024/01/06 18:25:29;;;;;;;5.50;5.00;;;;;;;;;;6308988;28;20300;-70
2024/01/06 18:28:34;;;;;;;5.77;4.73;;;;;;;;;;6309245;28;20251;-70
2024/01/06 18:31:38;;;;;;;5.37;4.57;;;;;;;;;;6309232;28;20243;-69
2024/01/06 18:34:45;;;;;;;5.43;4.90;;;;;;;;;;6309143;28;20477;-70